createdAt,value
2019-01-03T00:00:26.467Z,102782.34
2019-01-03T00:05:30.760Z,102787.80
2019-01-03T00:10:34.947Z,102782.83
2019-01-03T00:15:40.167Z,102791.32
2019-01-03T00:20:44.299Z,102787.23
2019-01-03T00:25:48.385Z,102790.44
2019-01-03T00:30:52.756Z,102799.64
2019-01-03T00:36:05.717Z,102795.27
2019-01-03T00:41:10.025Z,102804.39
2019-01-03T00:46:14.793Z,102803.94
2019-01-03T00:51:19.097Z,102813.50
2019-01-03T00:56:23.172Z,102811.73
2019-01-03T01:01:27.321Z,102823.84
2019-01-03T01:06:33.506Z,102829.75
2019-01-03T01:11:37.560Z,102837.31
2019-01-03T01:16:41.679Z,102833.27
2019-01-03T01:21:45.922Z,102835.14
2019-01-03T01:26:49.955Z,102840.36
2019-01-03T01:31:54.266Z,102846.25
2019-01-03T01:36:58.360Z,102842.95
2019-01-03T01:42:02.965Z,102848.23
2019-01-03T01:47:07.012Z,102836.00
2019-01-03T01:52:11.138Z,102841.80
2019-01-03T01:57:15.240Z,102837.28
2019-01-03T02:02:19.334Z,102838.58
2019-01-03T02:07:23.408Z,102834.31
2019-01-03T02:12:27.863Z,102829.03
2019-01-03T02:17:32.047Z,102830.50
2019-01-03T02:22:36.147Z,102830.23
2019-01-03T02:27:40.228Z,102833.09
2019-01-03T02:32:43.039Z,102835.23
2019-01-03T02:37:47.043Z,102834.11
2019-01-03T02:42:51.095Z,102834.80
2019-01-03T02:47:55.174Z,102835.64
2019-01-03T02:52:59.216Z,102829.97
2019-01-03T02:58:03.367Z,102825.17
2019-01-03T03:03:07.412Z,102830.87
2019-01-03T03:08:11.584Z,102824.98
2019-01-03T03:13:15.619Z,102828.80
2019-01-03T03:18:19.700Z,102829.42
2019-01-03T03:23:24.148Z,102828.80
2019-01-03T03:28:28.133Z,102831.39
2019-01-03T03:33:32.181Z,102820.48
2019-01-03T03:38:36.286Z,102816.27
2019-01-03T03:43:40.675Z,102813.78
2019-01-03T03:48:45.022Z,102801.98
2019-01-03T03:53:49.049Z,102805.86
2019-01-03T03:58:53.200Z,102802.30
2019-01-03T04:03:57.262Z,102808.86
2019-01-03T04:09:01.515Z,102804.00
2019-01-03T04:14:05.892Z,102801.76
2019-01-03T04:19:10.002Z,102782.13
2019-01-03T04:24:13.974Z,102780.62
2019-01-03T04:29:18.019Z,102792.37
2019-01-03T04:34:22.115Z,102784.86
2019-01-03T04:39:26.123Z,102772.97
2019-01-03T04:44:30.444Z,102766.95
2019-01-03T04:49:34.585Z,102753.81
2019-01-03T04:54:39.177Z,102759.77
2019-01-03T04:59:43.226Z,102759.25
2019-01-03T05:04:47.332Z,102753.34
2019-01-03T05:09:51.991Z,102760.95
2019-01-03T05:14:56.096Z,102758.59
2019-01-03T05:20:00.254Z,102765.50
2019-01-03T05:25:04.212Z,102764.98
2019-01-03T05:30:08.297Z,102766.90
2019-01-03T05:35:12.311Z,102776.92
2019-01-03T05:40:16.384Z,102782.84
2019-01-03T05:45:20.544Z,102779.63
2019-01-03T05:50:24.616Z,102779.04
2019-01-03T05:55:28.931Z,102778.04
2019-01-03T06:00:33.013Z,102769.39
2019-01-03T06:05:37.411Z,102776.79
2019-01-03T06:10:41.403Z,102761.61
2019-01-03T06:15:45.872Z,102773.09
2019-01-03T06:20:50.078Z,102765.30
2019-01-03T06:25:54.756Z,102775.94
2019-01-03T06:30:58.884Z,102780.98
2019-01-03T06:36:02.909Z,102780.40
2019-01-03T06:41:06.955Z,102774.70
2019-01-03T06:46:11.201Z,102776.52
2019-01-03T06:51:15.255Z,102777.33
2019-01-03T06:56:19.349Z,102786.29
2019-01-03T07:01:23.421Z,102785.70
2019-01-03T07:06:27.700Z,102794.48
2019-01-03T07:11:31.783Z,102799.17
2019-01-03T07:16:35.852Z,102797.21
2019-01-03T07:21:39.867Z,102804.27
2019-01-03T07:26:43.900Z,102824.34
2019-01-03T07:31:48.099Z,102812.84
2019-01-03T07:36:53.167Z,102823.39
2019-01-03T07:41:57.222Z,102819.48
2019-01-03T07:47:01.251Z,102841.78
2019-01-03T07:52:05.281Z,102845.46
2019-01-03T07:57:09.687Z,102851.71
2019-01-03T08:02:14.000Z,102854.69
2019-01-03T08:07:18.056Z,102866.20
2019-01-03T08:12:22.146Z,102870.19
2019-01-03T08:17:26.189Z,102861.66
2019-01-03T08:22:30.287Z,102865.57
2019-01-03T08:27:34.396Z,102860.03
2019-01-03T08:32:38.470Z,102859.75
2019-01-03T08:37:42.538Z,102867.33
2019-01-03T08:42:46.634Z,102868.35
2019-01-03T08:47:50.706Z,102876.59
2019-01-03T08:52:55.580Z,102877.52
2019-01-03T08:57:59.924Z,102879.57
2019-01-03T09:03:04.026Z,102884.55
2019-01-03T09:08:08.089Z,102881.92
2019-01-03T09:13:12.143Z,102873.20
2019-01-03T09:18:16.215Z,102870.03
2019-01-03T09:23:20.252Z,102880.25
2019-01-03T09:28:24.657Z,102887.91
2019-01-03T09:33:28.951Z,102882.89
2019-01-03T09:38:33.054Z,102879.21
2019-01-03T09:43:37.091Z,102883.38
2019-01-03T09:48:41.125Z,102877.23
2019-01-03T09:53:45.157Z,102866.70
2019-01-03T09:58:49.504Z,102868.62
2019-01-03T10:03:54.067Z,102866.36
2019-01-03T10:08:58.275Z,102854.31
2019-01-03T10:14:02.357Z,102864.13
2019-01-03T10:19:06.576Z,102863.66
2019-01-03T10:24:10.648Z,102866.98
2019-01-03T10:29:14.842Z,102866.80
2019-01-03T10:34:36.856Z,102865.76
2019-01-03T10:39:41.199Z,102877.54
2019-01-03T10:44:45.307Z,102866.07
2019-01-03T10:49:49.367Z,102872.71
2019-01-03T10:54:53.461Z,102861.71
2019-01-03T11:00:15.362Z,102863.84
2019-01-03T11:05:33.261Z,102865.38
2019-01-03T11:10:37.363Z,102868.85
2019-01-03T11:15:41.655Z,102871.66
2019-01-03T11:20:45.686Z,102862.73
2019-01-03T11:25:49.854Z,102860.06
2019-01-03T11:30:53.942Z,102856.54
2019-01-03T11:35:57.990Z,102857.69
2019-01-03T11:41:02.046Z,102868.94
2019-01-03T11:46:06.122Z,102861.20
2019-01-03T11:51:10.252Z,102854.49
2019-01-03T11:56:14.374Z,102845.33
2019-01-03T12:01:18.426Z,102848.67
2019-01-03T12:06:22.625Z,102857.10
2019-01-03T12:11:44.975Z,102854.02
2019-01-03T12:16:49.063Z,102857.88
2019-01-03T12:21:53.258Z,102856.28
2019-01-03T12:26:57.378Z,102857.14
2019-01-03T12:32:01.609Z,102858.02
2019-01-03T12:37:05.681Z,102855.42
2019-01-03T12:42:09.691Z,102855.92
2019-01-03T12:47:13.811Z,102849.82
2019-01-03T12:52:17.968Z,102846.31
2019-01-03T12:57:21.959Z,102837.72
2019-01-03T13:02:26.157Z,102834.44
2019-01-03T13:07:30.217Z,102845.89
2019-01-03T13:12:34.351Z,102855.33
2019-01-03T13:17:38.523Z,102850.08
2019-01-03T13:22:42.567Z,102859.96
2019-01-03T13:27:46.957Z,102877.77
2019-01-03T13:32:51.175Z,102882.87
2019-01-03T13:37:55.251Z,102885.05
2019-01-03T13:42:59.524Z,102886.92
2019-01-03T13:48:03.676Z,102883.68
2019-01-03T13:53:07.800Z,102893.27
2019-01-03T13:58:11.933Z,102890.69
2019-01-03T14:03:16.051Z,102892.30
2019-01-03T14:08:38.597Z,102890.73
2019-01-03T14:13:42.783Z,102898.83
2019-01-03T14:18:47.012Z,102893.83
2019-01-03T14:23:51.437Z,102890.69
2019-01-03T14:28:55.965Z,102891.44
2019-01-03T14:34:18.427Z,102891.78
2019-01-03T14:39:30.870Z,102899.92
2019-01-03T14:44:36.229Z,102903.59
2019-01-03T14:49:40.303Z,102898.78
2019-01-03T14:54:45.211Z,102913.00
2019-01-03T14:59:49.336Z,102917.73
2019-01-03T15:04:53.333Z,102922.72
2019-01-03T15:09:57.398Z,102921.50
2019-01-03T15:15:19.085Z,102927.17
2019-01-03T15:20:40.995Z,102928.96
2019-01-03T15:25:45.081Z,102931.14
2019-01-03T15:30:49.145Z,102937.95
2019-01-03T15:35:53.223Z,102941.93
2019-01-03T15:40:57.202Z,102940.52
2019-01-03T15:46:01.686Z,102949.09
2019-01-03T15:51:06.092Z,102947.96
2019-01-03T15:56:10.553Z,102957.23
2019-01-03T16:01:15.036Z,102970.13
2019-01-03T16:06:19.644Z,102973.94
2019-01-03T16:11:24.374Z,102978.87
2019-01-03T16:16:43.253Z,102988.34
2019-01-03T16:21:48.435Z,102989.95
2019-01-03T16:26:52.686Z,102995.49
2019-01-03T16:31:56.769Z,102998.44
2019-01-03T16:37:02.984Z,102992.05
2019-01-03T16:42:07.093Z,102990.30
2019-01-03T16:47:11.899Z,102992.17
2019-01-03T16:52:17.119Z,102996.15
2019-01-03T16:57:21.175Z,102992.75
2019-01-03T17:02:26.084Z,102991.50
2019-01-03T17:07:30.163Z,102997.83
2019-01-03T17:12:35.307Z,103001.45
2019-01-03T17:17:39.602Z,102991.82
2019-01-03T17:22:44.128Z,102980.80
2019-01-03T17:27:48.372Z,102978.75
2019-01-03T17:32:52.654Z,102972.72
2019-01-03T17:37:56.985Z,102972.44
2019-01-03T17:43:01.063Z,102974.61
2019-01-03T17:48:05.445Z,102977.95
2019-01-03T17:53:09.498Z,102980.00
2019-01-03T17:58:13.672Z,102986.05
2019-01-03T18:03:17.701Z,102993.31
2019-01-03T18:08:21.744Z,102996.28
2019-01-03T18:13:26.079Z,102999.61
2019-01-03T18:18:30.126Z,102996.44
2019-01-03T18:23:34.583Z,103005.99
2019-01-03T18:28:38.868Z,103011.56
2019-01-03T18:33:42.927Z,103015.91
2019-01-03T18:38:47.041Z,103026.05
2019-01-03T18:43:51.530Z,103030.57
2019-01-03T18:48:58.169Z,103027.55
2019-01-03T18:54:04.916Z,103023.00
2019-01-03T18:59:08.942Z,103030.41
2019-01-03T19:04:13.520Z,103036.17
2019-01-03T19:09:17.955Z,103039.56
2019-01-03T19:14:23.031Z,103037.93
2019-01-03T19:19:27.162Z,103054.53
2019-01-03T19:24:36.594Z,103059.36
2019-01-03T19:29:41.935Z,103061.98
2019-01-03T19:34:47.787Z,103073.69
2019-01-03T19:39:55.173Z,103072.55
2019-01-03T19:45:02.546Z,103079.00
2019-01-03T19:50:11.320Z,103082.44
2019-01-03T19:55:18.855Z,103093.64
2019-01-03T20:00:23.043Z,103091.12
2019-01-03T20:05:27.192Z,103093.33
2019-01-03T20:10:37.701Z,103095.00
2019-01-03T20:15:45.471Z,103097.37
2019-01-03T20:20:53.058Z,103092.77
2019-01-03T20:25:58.000Z,103090.75
2019-01-03T20:31:02.718Z,103093.47
2019-01-03T20:36:07.460Z,103090.02
2019-01-03T20:41:13.511Z,103088.20
2019-01-03T20:46:18.473Z,103084.94
2019-01-03T20:51:23.410Z,103074.86
2019-01-03T20:56:33.785Z,103074.01
2019-01-03T21:01:46.616Z,103073.58
2019-01-03T21:06:55.522Z,103084.92
2019-01-03T21:12:03.007Z,103078.84
2019-01-03T21:17:07.606Z,103074.22
2019-01-03T21:22:12.840Z,103080.71
2019-01-03T21:27:17.589Z,103083.48
2019-01-03T21:32:22.339Z,103083.89
2019-01-03T21:37:28.273Z,103087.58
2019-01-03T21:42:33.200Z,103075.87
2019-01-03T21:47:37.249Z,103073.08
2019-01-03T21:52:41.506Z,103066.91
2019-01-03T21:57:45.860Z,103071.97
2019-01-03T22:02:50.247Z,103064.67
2019-01-03T22:07:54.618Z,103067.47
2019-01-03T22:13:01.443Z,103061.69
2019-01-03T22:18:05.754Z,103056.73
2019-01-03T22:23:10.053Z,103047.65
2019-01-03T22:28:14.526Z,103048.84
2019-01-03T22:33:19.162Z,103041.52
2019-01-03T22:38:23.297Z,103034.50
2019-01-03T22:43:27.420Z,103027.44
2019-01-03T22:48:32.113Z,103019.91
2019-01-03T22:53:36.466Z,103025.00
2019-01-03T22:58:40.729Z,103022.52
2019-01-03T23:03:45.156Z,103032.30
2019-01-03T23:08:49.733Z,103028.14
2019-01-03T23:13:54.439Z,103033.25
2019-01-03T23:18:59.137Z,103023.41
2019-01-03T23:24:03.670Z,103029.72
2019-01-03T23:29:07.733Z,103035.09
2019-01-03T23:34:11.885Z,103031.81
2019-01-03T23:39:15.980Z,103036.91
2019-01-03T23:44:20.092Z,103038.20
2019-01-03T23:49:24.314Z,103032.27
2019-01-03T23:54:28.411Z,103039.14
2019-01-03T23:59:32.449Z,103025.45
